sensor_id;sensor_type;location;lat;lon;timestamp;temperature;humidity
28863;DHT22;15994;51.796;13.006;2022-07-17T00:02:00;13.30;99.90
28863;DHT22;15994;51.796;13.006;2022-07-17T00:04:27;13.30;99.90
28863;DHT22;15994;51.796;13.006;2022-07-17T00:06:53;13.40;99.90
28863;DHT22;15994;51.796;13.006;2022-07-17T00:09:20;13.40;99.90
28863;DHT22;15994;51.796;13.006;2022-07-17T00:11:46;13.40;99.90
28863;DHT22;15994;51.796;13.006;2022-07-17T00:14:13;13.40;99.90
28863;DHT22;15994;51.796;13.006;2022-07-17T00:16:40;13.40;99.90
28863;DHT22;15994;51.796;13.006;2022-07-17T00:19:06;13.40;99.90
28863;DHT22;15994;51.796;13.006;2022-07-17T00:21:33;13.30;99.90
28863;DHT22;15994;51.796;13.006;2022-07-17T00:23:59;13.40;99.90
28863;DHT22;15994;51.796;13.006;2022-07-17T00:26:28;13.30;99.90
28863;DHT22;15994;51.796;13.006;2022-07-17T00:28:54;13.30;99.90
28863;DHT22;15994;51.796;13.006;2022-07-17T00:31:21;13.20;99.90
28863;DHT22;15994;51.796;13.006;2022-07-17T00:33:47;13.30;99.90
28863;DHT22;15994;51.796;13.006;2022-07-17T00:36:14;13.20;99.90
28863;DHT22;15994;51.796;13.006;2022-07-17T00:38:41;13.30;99.90
28863;DHT22;15994;51.796;13.006;2022-07-17T00:41:07;13.20;99.90
28863;DHT22;15994;51.796;13.006;2022-07-17T00:43:34;13.20;99.90
28863;DHT22;15994;51.796;13.006;2022-07-17T00:46:03;13.10;99.90
28863;DHT22;15994;51.796;13.006;2022-07-17T00:48:30;13.00;99.90
28863;DHT22;15994;51.796;13.006;2022-07-17T00:50:57;13.00;99.90
28863;DHT22;15994;51.796;13.006;2022-07-17T00:53:24;13.00;99.90
28863;DHT22;15994;51.796;13.006;2022-07-17T00:55:51;12.90;99.90
28863;DHT22;15994;51.796;13.006;2022-07-17T00:58:21;12.90;99.90
28863;DHT22;15994;51.796;13.006;2022-07-17T01:00:52;12.80;99.90
28863;DHT22;15994;51.796;13.006;2022-07-17T01:03:21;12.80;99.90
28863;DHT22;15994;51.796;13.006;2022-07-17T01:05:48;12.70;99.90
28863;DHT22;15994;51.796;13.006;2022-07-17T01:08:15;12.70;99.90
28863;DHT22;15994;51.796;13.006;2022-07-17T01:10:42;12.70;99.90
28863;DHT22;15994;51.796;13.006;2022-07-17T01:13:08;12.60;99.90
28863;DHT22;15994;51.796;13.006;2022-07-17T01:15:37;12.60;99.90
28863;DHT22;15994;51.796;13.006;2022-07-17T01:18:14;12.50;99.90
28863;DHT22;15994;51.796;13.006;2022-07-17T01:20:43;12.50;99.90
28863;DHT22;15994;51.796;13.006;2022-07-17T01:23:15;12.40;99.90
28863;DHT22;15994;51.796;13.006;2022-07-17T01:25:43;12.30;99.90
28863;DHT22;15994;51.796;13.006;2022-07-17T01:28:10;12.20;99.90
28863;DHT22;15994;51.796;13.006;2022-07-17T01:30:44;12.20;99.90
28863;DHT22;15994;51.796;13.006;2022-07-17T01:33:10;12.10;99.90
28863;DHT22;15994;51.796;13.006;2022-07-17T01:35:37;12.10;99.90
28863;DHT22;15994;51.796;13.006;2022-07-17T01:38:03;12.00;99.90
28863;DHT22;15994;51.796;13.006;2022-07-17T01:40:30;12.00;99.90
28863;DHT22;15994;51.796;13.006;2022-07-17T01:42:57;11.90;99.90
28863;DHT22;15994;51.796;13.006;2022-07-17T01:45:23;11.90;99.90
28863;DHT22;15994;51.796;13.006;2022-07-17T01:47:50;11.80;99.90
28863;DHT22;15994;51.796;13.006;2022-07-17T01:50:16;11.80;99.90
28863;DHT22;15994;51.796;13.006;2022-07-17T01:52:44;11.70;99.90
28863;DHT22;15994;51.796;13.006;2022-07-17T01:55:13;11.70;99.90
28863;DHT22;15994;51.796;13.006;2022-07-17T01:57:41;11.70;99.90
28863;DHT22;15994;51.796;13.006;2022-07-17T02:00:11;11.70;99.90
28863;DHT22;15994;51.796;13.006;2022-07-17T02:02:39;11.70;99.90
28863;DHT22;15994;51.796;13.006;2022-07-17T02:05:06;11.60;99.90
28863;DHT22;15994;51.796;13.006;2022-07-17T02:07:34;11.60;99.90
28863;DHT22;15994;51.796;13.006;2022-07-17T02:10:03;11.60;99.90
28863;DHT22;15994;51.796;13.006;2022-07-17T02:12:29;11.60;99.90
28863;DHT22;15994;51.796;13.006;2022-07-17T02:14:56;11.60;99.90
28863;DHT22;15994;51.796;13.006;2022-07-17T02:17:22;11.60;99.90
28863;DHT22;15994;51.796;13.006;2022-07-17T02:19:49;11.60;99.90
28863;DHT22;15994;51.796;13.006;2022-07-17T02:22:15;11.50;99.90
28863;DHT22;15994;51.796;13.006;2022-07-17T02:24:42;11.50;99.90
28863;DHT22;15994;51.796;13.006;2022-07-17T02:27:08;11.40;99.90
28863;DHT22;15994;51.796;13.006;2022-07-17T02:29:35;11.40;99.90
28863;DHT22;15994;51.796;13.006;2022-07-17T02:32:01;11.30;99.90
28863;DHT22;15994;51.796;13.006;2022-07-17T02:34:28;11.30;99.90
28863;DHT22;15994;51.796;13.006;2022-07-17T02:36:55;11.30;99.90
28863;DHT22;15994;51.796;13.006;2022-07-17T02:39:21;11.20;99.90
28863;DHT22;15994;51.796;13.006;2022-07-17T02:41:49;11.20;99.90
28863;DHT22;15994;51.796;13.006;2022-07-17T02:44:15;11.10;99.90
28863;DHT22;15994;51.796;13.006;2022-07-17T02:46:42;11.20;99.90
28863;DHT22;15994;51.796;13.006;2022-07-17T02:49:08;11.10;99.90
28863;DHT22;15994;51.796;13.006;2022-07-17T02:51:35;11.10;99.90
28863;DHT22;15994;51.796;13.006;2022-07-17T02:54:01;11.10;99.90
28863;DHT22;15994;51.796;13.006;2022-07-17T02:56:28;11.10;99.90
28863;DHT22;15994;51.796;13.006;2022-07-17T02:58:54;11.10;99.90
28863;DHT22;15994;51.796;13.006;2022-07-17T03:01:21;11.10;99.90
28863;DHT22;15994;51.796;13.006;2022-07-17T03:03:47;11.00;99.90
28863;DHT22;15994;51.796;13.006;2022-07-17T03:06:14;11.00;99.90
28863;DHT22;15994;51.796;13.006;2022-07-17T03:08:40;10.90;99.90
28863;DHT22;15994;51.796;13.006;2022-07-17T03:11:07;10.90;99.90
28863;DHT22;15994;51.796;13.006;2022-07-17T03:13:34;10.80;99.90
28863;DHT22;15994;51.796;13.006;2022-07-17T03:16:00;10.80;99.90
28863;DHT22;15994;51.796;13.006;2022-07-17T03:18:27;10.80;99.90
28863;DHT22;15994;51.796;13.006;2022-07-17T03:20:53;10.80;99.90
28863;DHT22;15994;51.796;13.006;2022-07-17T03:23:20;10.80;99.90
28863;DHT22;15994;51.796;13.006;2022-07-17T03:25:46;10.80;99.90
28863;DHT22;15994;51.796;13.006;2022-07-17T03:28:13;10.70;99.90
28863;DHT22;15994;51.796;13.006;2022-07-17T03:30:39;10.70;99.90
28863;DHT22;15994;51.796;13.006;2022-07-17T03:33:06;10.70;99.90
28863;DHT22;15994;51.796;13.006;2022-07-17T03:35:32;10.70;99.90
28863;DHT22;15994;51.796;13.006;2022-07-17T03:37:59;10.70;99.90
28863;DHT22;15994;51.796;13.006;2022-07-17T03:40:25;10.70;99.90
28863;DHT22;15994;51.796;13.006;2022-07-17T03:42:52;10.80;99.90
28863;DHT22;15994;51.796;13.006;2022-07-17T03:45:19;10.90;99.90
28863;DHT22;15994;51.796;13.006;2022-07-17T03:47:45;10.90;99.90
28863;DHT22;15994;51.796;13.006;2022-07-17T03:50:12;10.90;99.90
28863;DHT22;15994;51.796;13.006;2022-07-17T03:52:38;10.90;99.90
28863;DHT22;15994;51.796;13.006;2022-07-17T03:55:05;11.00;99.90
28863;DHT22;15994;51.796;13.006;2022-07-17T03:57:32;11.00;99.90
28863;DHT22;15994;51.796;13.006;2022-07-17T03:59:59;11.00;99.90
28863;DHT22;15994;51.796;13.006;2022-07-17T04:02:25;11.00;99.90
28863;DHT22;15994;51.796;13.006;2022-07-17T04:04:52;11.10;99.90
28863;DHT22;15994;51.796;13.006;2022-07-17T04:07:18;11.10;99.90
28863;DHT22;15994;51.796;13.006;2022-07-17T04:09:55;11.10;99.90
28863;DHT22;15994;51.796;13.006;2022-07-17T04:12:22;11.10;99.90
28863;DHT22;15994;51.796;13.006;2022-07-17T04:14:49;11.10;99.90
28863;DHT22;15994;51.796;13.006;2022-07-17T04:17:16;11.20;99.90
28863;DHT22;15994;51.796;13.006;2022-07-17T04:19:43;11.20;99.90
28863;DHT22;15994;51.796;13.006;2022-07-17T04:22:10;11.30;99.90
28863;DHT22;15994;51.796;13.006;2022-07-17T04:24:36;11.30;99.90
28863;DHT22;15994;51.796;13.006;2022-07-17T04:27:03;11.40;99.90
28863;DHT22;15994;51.796;13.006;2022-07-17T04:29:30;11.40;99.90
28863;DHT22;15994;51.796;13.006;2022-07-17T04:31:56;11.40;99.90
28863;DHT22;15994;51.796;13.006;2022-07-17T04:34:23;11.50;99.90
28863;DHT22;15994;51.796;13.006;2022-07-17T04:36:50;11.50;99.90
28863;DHT22;15994;51.796;13.006;2022-07-17T04:39:16;11.50;99.90
28863;DHT22;15994;51.796;13.006;2022-07-17T04:41:43;11.60;99.90
28863;DHT22;15994;51.796;13.006;2022-07-17T04:44:09;11.60;99.90
28863;DHT22;15994;51.796;13.006;2022-07-17T04:46:36;11.60;99.90
28863;DHT22;15994;51.796;13.006;2022-07-17T04:49:03;11.60;99.90
28863;DHT22;15994;51.796;13.006;2022-07-17T04:51:29;11.70;99.90
28863;DHT22;15994;51.796;13.006;2022-07-17T04:53:56;11.70;99.90
28863;DHT22;15994;51.796;13.006;2022-07-17T04:56:22;11.70;99.90
28863;DHT22;15994;51.796;13.006;2022-07-17T04:58:49;11.80;99.90
28863;DHT22;15994;51.796;13.006;2022-07-17T05:01:15;11.80;99.90
28863;DHT22;15994;51.796;13.006;2022-07-17T05:03:42;11.80;99.90
28863;DHT22;15994;51.796;13.006;2022-07-17T05:06:08;11.90;99.90
28863;DHT22;15994;51.796;13.006;2022-07-17T05:08:35;12.00;99.90
28863;DHT22;15994;51.796;13.006;2022-07-17T05:11:02;12.00;99.90
28863;DHT22;15994;51.796;13.006;2022-07-17T05:13:29;12.10;99.90
28863;DHT22;15994;51.796;13.006;2022-07-17T05:15:55;12.10;99.90
28863;DHT22;15994;51.796;13.006;2022-07-17T05:18:22;12.10;99.90
28863;DHT22;15994;51.796;13.006;2022-07-17T05:20:48;12.20;99.90
28863;DHT22;15994;51.796;13.006;2022-07-17T05:23:15;12.30;99.90
28863;DHT22;15994;51.796;13.006;2022-07-17T05:25:41;12.30;99.90
28863;DHT22;15994;51.796;13.006;2022-07-17T05:28:09;12.40;99.90
28863;DHT22;15994;51.796;13.006;2022-07-17T05:30:35;12.50;99.90
28863;DHT22;15994;51.796;13.006;2022-07-17T05:33:02;12.60;99.90
28863;DHT22;15994;51.796;13.006;2022-07-17T05:35:29;12.60;99.90
28863;DHT22;15994;51.796;13.006;2022-07-17T05:37:56;12.70;99.90
28863;DHT22;15994;51.796;13.006;2022-07-17T05:40:23;12.70;99.90
28863;DHT22;15994;51.796;13.006;2022-07-17T05:42:51;12.90;99.90
28863;DHT22;15994;51.796;13.006;2022-07-17T05:45:17;12.90;99.90
28863;DHT22;15994;51.796;13.006;2022-07-17T05:47:44;12.90;99.90
28863;DHT22;15994;51.796;13.006;2022-07-17T05:50:10;13.00;99.90
28863;DHT22;15994;51.796;13.006;2022-07-17T05:52:37;13.10;99.90
28863;DHT22;15994;51.796;13.006;2022-07-17T05:55:04;13.10;99.90
28863;DHT22;15994;51.796;13.006;2022-07-17T05:57:31;13.20;99.90
28863;DHT22;15994;51.796;13.006;2022-07-17T05:59:57;13.30;99.90
28863;DHT22;15994;51.796;13.006;2022-07-17T06:02:24;13.40;99.90
28863;DHT22;15994;51.796;13.006;2022-07-17T06:04:50;13.50;99.90
28863;DHT22;15994;51.796;13.006;2022-07-17T06:07:17;13.60;99.90
28863;DHT22;15994;51.796;13.006;2022-07-17T06:09:44;13.70;99.90
28863;DHT22;15994;51.796;13.006;2022-07-17T06:12:10;13.80;99.90
28863;DHT22;15994;51.796;13.006;2022-07-17T06:14:38;13.80;99.90
28863;DHT22;15994;51.796;13.006;2022-07-17T06:17:06;14.00;99.90
